Impacts TAF Board INFO
FOR SITUATIONAL AWARENESS. NOT TO BE USED FOR FLIGHT PLANNING PURPOSES.
IDs:

KEWR - Newark Intl, NJ, US

Issued at 1736 UTC 19 Jan 2017
Updated at 1912 UTC 19 Jan 2017
Potential Impact None Slight Moderate High
Time1851Z 19/20Z 19/21Z 19/22Z 19/23Z 20/00Z 20/01Z 20/02Z 20/03Z 20/04Z 20/05Z 20/06Z 20/07Z 20/08Z
Type OBS PRVL
  [TEMP]  
PRVL
  [TEMP]  
PRVL PRVL PRVL PRVL PRVL PRVL PRVL PRVL PRVL PRVL PRVL
VIS 10 >6 >6 >6 >6 >6 >6 >6 >6 >6 >6 >6 >6 >6
CIG 27 --
  [25]  
--
  [25]  
-- -- -- -- -- -- -- -- -- -- --
Cover OVC SCT
  [BKN]  
SCT
  [BKN]  
SCT SCT SCT SCT SCT SCT SCT SCT SCT SCT SCT
FltCat MVFR VFR
  [MVFR]  
VFR
  [MVFR]  
VFR VFR VFR VFR VFR VFR VFR VFR VFR VFR VFR
WX -- --
  [--]  
--
  [--]  
-- -- -- -- -- -- -- -- -- -- --
WDir 340 320
[320]
320
[320]
320 320 320 320 350 350 350 350 350 350 350
WSpd 9 9
  [9]  
9
  [9]  
9 9 9 9 6 6 6 6 6 6 6
WGst -- --
  [--]  
--
  [--]  
-- -- -- -- -- -- -- -- -- -- --

Raw TAF
KEWR 191736Z 1918/2024 32009KT P6SM SCT025 SCT250
  TEMPO 1918/1922 BKN025
  FM200200 35006KT P6SM SCT025 SCT250
  FM200900 VRB03KT P6SM SCT025 SCT250
  FM201400 07003KT P6SM SCT020 BKN200
  FM201700 13004KT P6SM BKN020 BKN150
  FM202300 12006KT 3SM -RA BR BKN010 OVC020


Raw METAR
KEWR 191851Z 34009KT 290V360 10SM BKN027 OVC250 08/02 A3000 RMK AO2 SLP157 T00830017
KEWR 191751Z 33008KT 10SM BKN029 BKN250 09/02 A3000 RMK AO2 SLP159 T00890017 10100 20039 57021
KEWR 191739Z 30006G15KT 10SM BKN029 BKN250 09/02 A3000 RMK AO2 T00890017
KEWR 191651Z 30012G20KT 10SM SCT027 SCT250 09/02 A3002 RMK AO2 SLP165 T00940022

METAR Board
Radar Display
Forecast Discussion

FOR SITUATIONAL AWARENESS. NOT TO BE USED FOR FLIGHT PLANNING PURPOSES.

Page loaded:  19:12 UTC  |   11:12 AM Pacific  |   12:12 PM Mountain  |   01:12 PM Central  |   02:12 PM Eastern

 

ADVISORIES

FORECASTS

FORECASTS

OBSERVATIONS

USER TOOLS

ABOUT US